createdAt,value
2018-02-24T00:00:48.958Z,-5.9
2018-02-24T00:02:47.159Z,-5.9
2018-02-24T00:03:45.862Z,-5.9
2018-02-24T00:04:44.702Z,-5.9
2018-02-24T00:05:43.304Z,-5.9
2018-02-24T00:06:42.425Z,-5.9
2018-02-24T00:07:40.804Z,-5.9
2018-02-24T00:08:39.800Z,-5.9
2018-02-24T00:09:39.230Z,-5.9
2018-02-24T00:10:37.828Z,-5.9
2018-02-24T00:12:35.810Z,-5.9
2018-02-24T00:13:34.087Z,-5.9
2018-02-24T00:14:33.796Z,-5.9
2018-02-24T00:16:31.034Z,-5.9
2018-02-24T00:17:30.144Z,-5.9
2018-02-24T00:18:28.637Z,-5.9
2018-02-24T00:19:27.428Z,-5.9
2018-02-24T00:20:26.649Z,-5.9
2018-02-24T00:21:25.262Z,-5.9
2018-02-24T00:22:24.479Z,-5.9
2018-02-24T00:24:21.856Z,-5.9
2018-02-24T00:25:20.963Z,-5.9
2018-02-24T00:27:18.843Z,-6
2018-02-24T00:28:17.663Z,-5.9
2018-02-24T00:29:16.168Z,-6
2018-02-24T00:30:15.503Z,-6
2018-02-24T00:31:14.213Z,-5.9
2018-02-24T00:32:12.811Z,-6
2018-02-24T00:33:12.022Z,-6
2018-02-24T00:34:10.416Z,-6
2018-02-24T00:36:08.329Z,-5.9
2018-02-24T00:36:38.748Z,-5.9
2018-02-24T00:38:06.643Z,-6
2018-02-24T00:39:05.259Z,-6
2018-02-24T00:40:03.876Z,-6
2018-02-24T00:41:03.194Z,-5.9
2018-02-24T00:42:01.587Z,-5.9
2018-02-24T00:43:00.918Z,-5.9
2018-02-24T00:43:59.515Z,-5.9
2018-02-24T00:44:58.619Z,-5.9
2018-02-24T00:45:57.445Z,-5.9
2018-02-24T00:46:56.047Z,-5.9
2018-02-24T00:47:55.040Z,-5.9
2018-02-24T00:48:54.050Z,-5.9
2018-02-24T00:49:52.648Z,-5.9
2018-02-24T00:51:50.635Z,-5.9
2018-02-24T00:52:49.031Z,-5.9
2018-02-24T00:54:47.225Z,-5.9
2018-02-24T00:55:46.336Z,-5.9
2018-02-24T00:57:43.930Z,-5.9
2018-02-24T00:58:42.426Z,-5.9
2018-02-24T00:59:41.642Z,-5.9
2018-02-24T01:00:40.475Z,-5.9
2018-02-24T01:01:39.480Z,-5.9
2018-02-24T01:02:38.300Z,-5.9
2018-02-24T01:03:37.019Z,-5.9
2018-02-24T01:04:35.628Z,-5.9
2018-02-24T01:05:35.183Z,-6
2018-02-24T01:06:33.629Z,-5.9
2018-02-24T01:07:32.846Z,-5.9
2018-02-24T01:08:31.443Z,-5.9
2018-02-24T01:09:30.438Z,-5.9
2018-02-24T01:10:28.937Z,-5.9
2018-02-24T01:12:27.031Z,-6
2018-02-24T01:13:25.854Z,-6
2018-02-24T01:14:24.451Z,-6
2018-02-24T01:16:22.559Z,-6
2018-02-24T01:17:21.153Z,-5.9
2018-02-24T01:18:20.154Z,-5.9
2018-02-24T01:19:19.159Z,-6
2018-02-24T01:20:17.541Z,-6
2018-02-24T01:21:16.540Z,-5.9
2018-02-24T01:23:14.309Z,-5.9
2018-02-24T01:24:13.516Z,-5.9
2018-02-24T01:26:11.107Z,-5.9
2018-02-24T01:27:09.709Z,-6
2018-02-24T01:28:08.717Z,-5.9
2018-02-24T01:29:07.926Z,-5.9
2018-02-24T01:30:06.635Z,-6
2018-02-24T01:31:05.130Z,-6
2018-02-24T01:32:04.333Z,-6
2018-02-24T01:36:58.454Z,-5.9
2018-02-24T01:37:57.445Z,-5.9
2018-02-24T01:38:56.550Z,-5.9
2018-02-24T01:39:55.053Z,-5.9
2018-02-24T01:40:54.235Z,-5.9
2018-02-24T01:41:52.951Z,-5.9
2018-02-24T01:46:47.799Z,-5.9
2018-02-24T01:47:46.723Z,-5.9
2018-02-24T01:48:45.213Z,-6
2018-02-24T01:49:44.425Z,-6
2018-02-24T01:50:14.957Z,-6
2018-02-24T01:51:41.851Z,-6
2018-02-24T01:52:40.863Z,-6
2018-02-24T01:53:39.690Z,-6
2018-02-24T01:54:38.399Z,-6
2018-02-24T01:55:37.406Z,-6
2018-02-24T01:56:35.913Z,-6
2018-02-24T01:57:35.238Z,-6
2018-02-24T01:59:32.833Z,-6
2018-02-24T02:00:31.545Z,-6.1
2018-02-24T02:01:30.550Z,-6.1
2018-02-24T02:02:29.151Z,-6.1
2018-02-24T02:03:28.259Z,-6.1
2018-02-24T02:04:27.364Z,-6.1
2018-02-24T02:05:26.283Z,-6.1
2018-02-24T02:06:24.992Z,-6.1
2018-02-24T02:08:22.585Z,-6.1
2018-02-24T02:10:20.683Z,-6.1
2018-02-24T02:11:19.598Z,-6.1
2018-02-24T02:12:18.362Z,-6.1
2018-02-24T02:13:17.179Z,-6.1
2018-02-24T02:15:14.444Z,-6.2
2018-02-24T02:16:13.773Z,-6.2
2018-02-24T02:17:12.261Z,-6.2
2018-02-24T02:18:11.361Z,-6.2
2018-02-24T02:19:10.248Z,-6.2
2018-02-24T02:20:09.562Z,-6.2
2018-02-24T02:21:08.382Z,-6.2
2018-02-24T02:22:07.090Z,-6.2
2018-02-24T02:23:06.009Z,-6.3
2018-02-24T02:24:04.608Z,-6.3
2018-02-24T02:25:03.714Z,-6.3
2018-02-24T02:26:02.313Z,-6.3
2018-02-24T02:28:00.618Z,-6.4
2018-02-24T02:28:30.533Z,-6.4
2018-02-24T02:29:00.955Z,-6.4
2018-02-24T02:29:31.593Z,-6.4
2018-02-24T02:30:02.023Z,-6.4
2018-02-24T02:30:32.459Z,-6.4
2018-02-24T02:31:02.990Z,-6.4
2018-02-24T02:31:55.452Z,-6.4
2018-02-24T02:32:25.979Z,-6.4
2018-02-24T02:33:53.500Z,-6.4
2018-02-24T02:34:52.331Z,-6.4
2018-02-24T02:35:51.151Z,-6.4
2018-02-24T02:36:49.764Z,-6.4
2018-02-24T02:37:48.988Z,-6.4
2018-02-24T02:40:45.353Z,-6.4
2018-02-24T02:41:44.703Z,-6.5
2018-02-24T02:42:15.017Z,-6.5
2018-02-24T02:43:42.199Z,-6.5
2018-02-24T02:44:40.928Z,-6.5
2018-02-24T02:45:39.527Z,-6.5
2018-02-24T02:46:38.707Z,-6.5
2018-02-24T02:47:37.206Z,-6.5
2018-02-24T02:48:36.232Z,-6.5
2018-02-24T02:49:35.460Z,-6.5
2018-02-24T02:51:33.339Z,-6.5
2018-02-24T02:52:32.171Z,-6.5
2018-02-24T02:54:29.784Z,-6.6
2018-02-24T02:55:28.636Z,-6.6
2018-02-24T02:56:27.463Z,-6.6
2018-02-24T02:57:26.189Z,-6.6
2018-02-24T02:59:24.077Z,-6.6
2018-02-24T03:00:23.011Z,-6.6
2018-02-24T03:01:21.837Z,-6.6
2018-02-24T03:02:20.448Z,-6.6
2018-02-24T03:03:19.671Z,-6.6
2018-02-24T03:04:18.386Z,-6.6
2018-02-24T03:05:17.328Z,-6.6
2018-02-24T03:06:15.709Z,-6.6
2018-02-24T03:07:15.146Z,-6.6
2018-02-24T03:09:12.523Z,-6.6
2018-02-24T03:09:43.053Z,-6.6
2018-02-24T03:10:13.580Z,-6.6
2018-02-24T03:10:43.890Z,-6.6
2018-02-24T03:12:09.269Z,-6.6
2018-02-24T03:14:06.858Z,-6.6
2018-02-24T03:15:06.082Z,-6.6
2018-02-24T03:16:04.574Z,-6.6
2018-02-24T03:17:03.579Z,-6.6
2018-02-24T03:18:02.807Z,-6.6
2018-02-24T03:19:01.669Z,-6.6
2018-02-24T03:20:00.593Z,-6.6
2018-02-24T03:20:59.198Z,-6.6
2018-02-24T03:21:29.466Z,-6.6
2018-02-24T03:21:59.831Z,-6.6
2018-02-24T03:22:57.029Z,-6.6
2018-02-24T03:23:55.675Z,-6.6
2018-02-24T03:24:54.986Z,-6.6
2018-02-24T03:25:53.594Z,-6.7
2018-02-24T03:26:52.304Z,-6.7
2018-02-24T03:27:51.309Z,-6.7
2018-02-24T03:28:50.117Z,-6.7
2018-02-24T03:29:49.221Z,-6.7
2018-02-24T03:31:46.812Z,-6.7
2018-02-24T03:32:45.418Z,-6.7
2018-02-24T03:33:44.525Z,-6.7
2018-02-24T03:34:43.242Z,-6.7
2018-02-24T03:35:42.234Z,-6.7
2018-02-24T03:36:41.160Z,-6.7
2018-02-24T03:37:39.862Z,-6.7
2018-02-24T03:38:38.564Z,-6.7
2018-02-24T03:39:37.673Z,-6.7
2018-02-24T03:40:36.382Z,-6.7
2018-02-24T03:41:35.491Z,-6.7
2018-02-24T03:42:34.207Z,-6.7
2018-02-24T03:43:32.706Z,-6.7
2018-02-24T03:44:32.046Z,-6.7
2018-02-24T03:45:30.865Z,-6.8
2018-02-24T03:46:29.470Z,-6.8
2018-02-24T03:47:28.918Z,-6.8
2018-02-24T03:48:27.747Z,-6.8
2018-02-24T03:49:26.360Z,-6.7
2018-02-24T03:50:24.859Z,-6.7
2018-02-24T03:51:24.073Z,-6.8
2018-02-24T03:52:22.577Z,-6.7
2018-02-24T03:54:20.467Z,-6.8
2018-02-24T03:55:19.791Z,-6.8
2018-02-24T03:56:18.658Z,-6.8
2018-02-24T03:57:17.158Z,-6.8
2018-02-24T03:58:16.499Z,-6.8
2018-02-24T03:59:14.990Z,-6.8
2018-02-24T04:01:12.590Z,-6.7
2018-02-24T04:02:11.500Z,-6.7
2018-02-24T04:03:10.499Z,-6.7
2018-02-24T04:05:07.995Z,-6.8
2018-02-24T04:06:07.108Z,-6.8
2018-02-24T04:07:05.724Z,-6.8
2018-02-24T04:08:04.941Z,-6.8
2018-02-24T04:09:03.697Z,-6.7
2018-02-24T04:10:02.777Z,-6.7
2018-02-24T04:11:01.496Z,-6.8
2018-02-24T04:12:00.314Z,-6.8
2018-02-24T04:12:59.038Z,-6.8
2018-02-24T04:13:57.540Z,-6.8
2018-02-24T04:14:56.756Z,-6.8
2018-02-24T04:16:54.130Z,-6.8
2018-02-24T04:17:53.250Z,-6.8
2018-02-24T04:18:52.363Z,-6.8
2018-02-24T04:19:50.970Z,-6.8
2018-02-24T04:20:49.870Z,-6.8
2018-02-24T04:21:48.983Z,-6.8
2018-02-24T04:22:47.752Z,-6.8
2018-02-24T04:23:46.872Z,-6.8
2018-02-24T04:24:45.264Z,-6.8
2018-02-24T04:25:44.494Z,-6.8
2018-02-24T04:26:43.220Z,-6.8
2018-02-24T04:27:42.117Z,-6.8
2018-02-24T04:28:40.619Z,-6.8
2018-02-24T04:29:39.834Z,-6.8
2018-02-24T04:30:38.772Z,-6.8
2018-02-24T04:31:37.377Z,-6.8
2018-02-24T04:32:36.380Z,-6.8
2018-02-24T04:33:35.494Z,-6.8
2018-02-24T04:35:33.088Z,-6.8
2018-02-24T04:36:31.911Z,-6.8
2018-02-24T04:37:30.417Z,-6.8
2018-02-24T04:38:29.530Z,-6.8
2018-02-24T04:39:28.249Z,-6.8
2018-02-24T04:40:27.572Z,-6.8
2018-02-24T04:41:26.188Z,-6.8
2018-02-24T04:43:23.908Z,-6.9
2018-02-24T04:43:54.440Z,-6.9
2018-02-24T04:44:24.875Z,-6.8
2018-02-24T04:44:55.301Z,-6.8
2018-02-24T04:45:25.842Z,-6.9
2018-02-24T04:45:56.055Z,-6.9
2018-02-24T04:47:19.330Z,-6.9
2018-02-24T04:50:15.804Z,-6.9
2018-02-24T04:51:14.810Z,-6.9
2018-02-24T04:53:12.085Z,-6.9
2018-02-24T04:54:11.083Z,-7
2018-02-24T04:55:10.201Z,-7
2018-02-24T04:56:08.700Z,-7
2018-02-24T04:57:07.923Z,-7
2018-02-24T04:58:06.644Z,-7
2018-02-24T04:59:05.866Z,-7
2018-02-24T05:01:03.473Z,-7
2018-02-24T05:02:02.294Z,-7.1
2018-02-24T05:03:01.411Z,-7.1
2018-02-24T05:04:00.028Z,-7.1
2018-02-24T05:05:58.018Z,-7.1
2018-02-24T05:06:56.845Z,-7.1
2018-02-24T05:07:55.459Z,-7.1
2018-02-24T05:08:54.171Z,-7.1
2018-02-24T05:09:53.279Z,-7.1
2018-02-24T05:11:50.981Z,-7.1
2018-02-24T05:12:49.697Z,-7.1
2018-02-24T05:13:49.019Z,-7.1
2018-02-24T05:14:47.851Z,-7.1
2018-02-24T05:15:46.464Z,-7.1
2018-02-24T05:16:45.082Z,-7.2
2018-02-24T05:17:44.083Z,-7.2
2018-02-24T05:18:42.975Z,-7.2
2018-02-24T05:19:42.215Z,-7.2
2018-02-24T05:20:40.716Z,-7.2
2018-02-24T05:21:39.214Z,-7.2
2018-02-24T05:22:38.339Z,-7.2
2018-02-24T05:23:37.549Z,-7.2
2018-02-24T05:24:08.090Z,-7.2
2018-02-24T05:24:38.419Z,-7.2
2018-02-24T05:25:08.743Z,-7.2
2018-02-24T05:26:33.420Z,-7.2
2018-02-24T05:27:32.540Z,-7.2
2018-02-24T05:28:31.542Z,-7.1
2018-02-24T05:29:30.367Z,-7.2
2018-02-24T05:30:29.367Z,-7.2
2018-02-24T05:31:28.197Z,-7.2
2018-02-24T05:32:26.586Z,-7.2
2018-02-24T05:33:25.802Z,-7.2
2018-02-24T05:33:56.124Z,-7.2
2018-02-24T05:35:23.530Z,-7.2
2018-02-24T05:36:22.810Z,-7.2
2018-02-24T05:37:21.420Z,-7.2
2018-02-24T05:38:20.044Z,-7.2
2018-02-24T05:39:18.939Z,-7.2
2018-02-24T05:40:18.044Z,-7.2
2018-02-24T05:41:16.768Z,-7.2
2018-02-24T05:42:15.882Z,-7.2
2018-02-24T05:45:12.247Z,-7.2
2018-02-24T05:49:07.608Z,-7.2
2018-02-24T05:50:06.111Z,-7.2
2018-02-24T05:51:05.006Z,-7.3
2018-02-24T05:52:04.118Z,-7.3
2018-02-24T05:53:03.341Z,-7.3
2018-02-24T05:54:02.162Z,-7.3
2018-02-24T05:55:00.784Z,-7.3
2018-02-24T05:55:59.784Z,-7.3
2018-02-24T05:56:58.389Z,-7.3
2018-02-24T05:57:57.502Z,-7.3
2018-02-24T05:58:56.013Z,-7.3
2018-02-24T05:59:55.024Z,-7.3
2018-02-24T06:00:54.025Z,-7.4
2018-02-24T06:01:52.642Z,-7.4
2018-02-24T06:03:50.632Z,-7.4
2018-02-24T06:04:49.243Z,-7.4
2018-02-24T06:06:47.388Z,-7.4
2018-02-24T06:07:45.997Z,-7.3
2018-02-24T06:10:42.477Z,-7.3
2018-02-24T06:11:41.482Z,-7.4
2018-02-24T06:12:40.209Z,-7.3
2018-02-24T06:13:39.321Z,-7.3
2018-02-24T06:14:37.827Z,-7.3
2018-02-24T06:15:08.369Z,-7.3
2018-02-24T06:17:34.764Z,-7.3
2018-02-24T06:18:33.254Z,-7.3
2018-02-24T06:20:31.362Z,-7.2
2018-02-24T06:21:29.970Z,-7.2
2018-02-24T06:22:29.081Z,-7.2
2018-02-24T06:23:27.792Z,-7.2
2018-02-24T06:24:26.304Z,-7.1
2018-02-24T06:25:25.422Z,-7.1
2018-02-24T06:26:23.931Z,-7.1
2018-02-24T06:28:21.917Z,-7.1
2018-02-24T06:29:21.245Z,-7.1
2018-02-24T06:31:18.623Z,-7.1
2018-02-24T06:33:16.513Z,-7.1
2018-02-24T06:35:14.112Z,-7
2018-02-24T06:36:12.821Z,-7
2018-02-24T06:37:11.939Z,-7
2018-02-24T06:38:10.438Z,-7
2018-02-24T06:40:08.558Z,-7
2018-02-24T06:41:07.275Z,-7
2018-02-24T06:42:05.882Z,-7
2018-02-24T06:43:05.099Z,-7
2018-02-24T06:45:02.480Z,-7
2018-02-24T06:46:01.719Z,-7
2018-02-24T06:47:59.104Z,-6.9
2018-02-24T06:48:58.541Z,-6.9
2018-02-24T06:50:55.920Z,-6.9
2018-02-24T06:51:26.343Z,-6.9
2018-02-24T06:51:56.776Z,-6.9
2018-02-24T06:52:53.590Z,-6.9
2018-02-24T06:53:52.312Z,-6.8
2018-02-24T06:57:47.952Z,-6.7
2018-02-24T06:58:46.663Z,-6.7
2018-02-24T06:59:45.597Z,-6.7
2018-02-24T07:01:43.089Z,-6.6
2018-02-24T07:02:42.413Z,-6.6
2018-02-24T07:03:40.712Z,-6.6
2018-02-24T07:05:38.817Z,-6.5
2018-02-24T07:06:37.328Z,-6.5
2018-02-24T07:07:36.224Z,-6.5
2018-02-24T07:08:35.559Z,-6.4
2018-02-24T07:11:31.974Z,-6.3
2018-02-24T07:13:29.463Z,-6.3
2018-02-24T07:14:28.579Z,-6.3
2018-02-24T07:16:26.290Z,-6.3
2018-02-24T07:17:24.909Z,-6.2
2018-02-24T07:18:24.071Z,-6.2
2018-02-24T07:20:21.679Z,-6.2
2018-02-24T07:21:20.176Z,-6.2
2018-02-24T07:21:50.499Z,-6.2
2018-02-24T07:25:16.172Z,-6.2
2018-02-24T07:26:14.782Z,-6.2
2018-02-24T07:27:13.397Z,-6.1
2018-02-24T07:28:12.507Z,-6.1
2018-02-24T07:31:08.885Z,-6
2018-02-24T07:32:08.122Z,-5.9
2018-02-24T07:33:06.629Z,-5.9
2018-02-24T07:34:05.731Z,-5.9
2018-02-24T07:35:04.446Z,-5.9
2018-02-24T07:36:03.668Z,-5.8
2018-02-24T07:37:02.178Z,-5.8
2018-02-24T07:38:01.289Z,-5.7
2018-02-24T07:38:59.934Z,-5.7
2018-02-24T07:39:59.152Z,-5.6
2018-02-24T07:41:56.746Z,-5.6
2018-02-24T07:42:55.871Z,-5.5
2018-02-24T07:43:54.482Z,-5.5
2018-02-24T07:44:53.272Z,-5.5
2018-02-24T07:45:52.215Z,-5.4
2018-02-24T07:46:51.110Z,-5.4
2018-02-24T07:47:49.720Z,-5.3
2018-02-24T07:48:48.831Z,-5.3
2018-02-24T07:49:47.555Z,-5.3
2018-02-24T07:50:46.781Z,-5.3
2018-02-24T07:51:45.397Z,-5.3
2018-02-24T07:53:43.175Z,-5.2
2018-02-24T07:54:42.001Z,-5.2
2018-02-24T07:55:41.239Z,-5.2
2018-02-24T07:56:39.525Z,-5.1
2018-02-24T07:57:38.643Z,-5.1
2018-02-24T07:58:37.532Z,-5.1
2018-02-24T07:59:36.138Z,-5.1
2018-02-24T08:00:35.250Z,-5
2018-02-24T08:01:34.247Z,-5
2018-02-24T08:02:32.857Z,-5
2018-02-24T08:03:31.978Z,-5
2018-02-24T08:04:30.478Z,-4.9
2018-02-24T08:05:29.479Z,-4.9
2018-02-24T08:06:28.817Z,-4.9
2018-02-24T08:07:27.426Z,-4.9
2018-02-24T08:08:26.366Z,-4.8
2018-02-24T08:09:25.493Z,-4.8
2018-02-24T08:10:24.212Z,-4.8
2018-02-24T08:11:23.150Z,-4.8
2018-02-24T08:12:21.665Z,-4.8
2018-02-24T08:14:19.658Z,-4.7
2018-02-24T08:16:17.430Z,-4.6
2018-02-24T08:17:16.425Z,-4.6
2018-02-24T08:18:15.143Z,-4.5
2018-02-24T08:19:13.858Z,-4.4
2018-02-24T08:22:10.740Z,-4.3
2018-02-24T08:23:09.354Z,-4.3
2018-02-24T08:25:07.243Z,-4.2
2018-02-24T08:26:06.365Z,-4.2
2018-02-24T08:28:03.862Z,-4.1
2018-02-24T08:30:01.972Z,-4.1
2018-02-24T08:31:00.692Z,-4
2018-02-24T08:31:59.514Z,-4
2018-02-24T08:34:55.893Z,-3.8
2018-02-24T08:35:55.255Z,-3.7
2018-02-24T08:36:54.080Z,-3.7
2018-02-24T08:40:49.437Z,-3.5
2018-02-24T08:41:48.454Z,-3.5
2018-02-24T08:43:46.331Z,-3.4
2018-02-24T08:46:43.082Z,-3.4
2018-02-24T08:47:41.688Z,-3.3
2018-02-24T08:49:39.890Z,-3.3
2018-02-24T08:50:38.709Z,-3.2
2018-02-24T08:51:37.429Z,-3.2
2018-02-24T08:52:36.151Z,-3.2
2018-02-24T08:56:31.894Z,-3.1
2018-02-24T08:57:31.219Z,-3.1
2018-02-24T08:58:29.825Z,-3.1
2018-02-24T09:01:26.175Z,-3
2018-02-24T09:02:25.287Z,-3
2018-02-24T09:05:21.869Z,-2.8
2018-02-24T09:06:21.097Z,-2.8
2018-02-24T09:07:20.029Z,-2.7
2018-02-24T09:08:18.847Z,-2.7
2018-02-24T09:09:17.581Z,-2.7
2018-02-24T09:10:16.585Z,-2.7
2018-02-24T09:11:15.319Z,-2.7
2018-02-24T09:13:13.294Z,-2.7
2018-02-24T09:14:11.898Z,-2.6
2018-02-24T09:15:11.017Z,-2.6
2018-02-24T09:16:09.849Z,-2.6
2018-02-24T09:17:08.959Z,-2.6
2018-02-24T09:18:07.567Z,-2.6
2018-02-24T09:19:06.966Z,-2.6
2018-02-24T09:21:04.520Z,-2.5
2018-02-24T09:22:03.239Z,-2.5
2018-02-24T09:23:02.342Z,-2.5
2018-02-24T09:25:00.329Z,-2.4
2018-02-24T09:26:57.821Z,-2.4
2018-02-24T09:28:55.917Z,-2.3
2018-02-24T09:29:54.740Z,-2.3
2018-02-24T09:30:53.350Z,-2.3
2018-02-24T09:32:51.235Z,-2.3
2018-02-24T09:34:49.330Z,-2.2
2018-02-24T09:35:47.724Z,-2.2
2018-02-24T09:36:47.161Z,-2.2
2018-02-24T09:40:42.516Z,-2.1
2018-02-24T09:41:41.738Z,-2.1
2018-02-24T09:42:40.242Z,-2
2018-02-24T09:45:37.225Z,-1.9
2018-02-24T09:46:07.652Z,-1.9
2018-02-24T09:49:32.708Z,-1.9
2018-02-24T09:50:31.929Z,-1.8
2018-02-24T09:51:30.645Z,-1.8
2018-02-24T09:53:28.745Z,-1.7
2018-02-24T09:54:27.560Z,-1.7
2018-02-24T09:55:26.492Z,-1.7
2018-02-24T09:57:23.874Z,-1.8
2018-02-24T09:59:21.865Z,-1.7
2018-02-24T10:00:20.988Z,-1.6
2018-02-24T10:02:18.487Z,-1.5
2018-02-24T10:03:17.744Z,-1.4
2018-02-24T10:06:14.837Z,-1.3
2018-02-24T10:07:13.449Z,-1.2
2018-02-24T10:09:11.047Z,-1.3
2018-02-24T10:10:09.944Z,-1.3
2018-02-24T10:13:06.939Z,-1.2
2018-02-24T10:14:06.068Z,-1.2
2018-02-24T10:16:03.662Z,-1.2
2018-02-24T10:18:01.654Z,-1.1
2018-02-24T10:19:00.804Z,-1.1
2018-02-24T10:19:59.531Z,-1.1
2018-02-24T10:20:58.359Z,-1
2018-02-24T10:21:57.065Z,-1
2018-02-24T10:22:56.279Z,-1.1
2018-02-24T10:23:54.887Z,-1.1
2018-02-24T10:24:54.305Z,-1
2018-02-24T10:25:24.692Z,-1
2018-02-24T10:25:55.327Z,-1
2018-02-24T10:26:25.643Z,-1
2018-02-24T10:27:50.924Z,-0.9
2018-02-24T10:28:49.636Z,-1
2018-02-24T10:31:46.611Z,-0.8
2018-02-24T10:32:45.725Z,-0.8
2018-02-24T10:33:44.225Z,-0.7
2018-02-24T10:34:43.339Z,-0.6
2018-02-24T10:35:42.655Z,-0.6
2018-02-24T10:36:41.267Z,-0.5
2018-02-24T10:37:40.168Z,-0.4
2018-02-24T10:38:38.984Z,-0.4
2018-02-24T10:39:37.984Z,-0.4
2018-02-24T10:41:35.976Z,-0.4
2018-02-24T10:43:33.572Z,-0.3
2018-02-24T10:44:33.010Z,-0.3
2018-02-24T10:45:31.850Z,-0.3
2018-02-24T10:46:30.355Z,-0.3
2018-02-24T10:47:29.578Z,-0.3
2018-02-24T10:49:27.463Z,-0.3
2018-02-24T10:50:26.285Z,-0.3
2018-02-24T10:52:24.384Z,-0.3
2018-02-24T10:53:22.894Z,-0.3
2018-02-24T10:54:22.222Z,-0.3
2018-02-24T10:55:20.951Z,-0.4
2018-02-24T10:56:20.282Z,-0.4
2018-02-24T10:57:19.110Z,-0.4
2018-02-24T10:58:18.046Z,-0.4
2018-02-24T10:59:16.543Z,-0.4
2018-02-24T11:01:14.639Z,-0.3
2018-02-24T11:03:12.852Z,-0.4
2018-02-24T11:04:11.566Z,-0.4
2018-02-24T11:05:10.181Z,-0.3
2018-02-24T11:06:09.511Z,-0.4
2018-02-24T11:07:08.133Z,-0.4
2018-02-24T11:08:07.244Z,-0.4
2018-02-24T11:09:06.466Z,-0.4
2018-02-24T11:10:05.113Z,-0.4
2018-02-24T11:11:04.196Z,-0.3
2018-02-24T11:14:01.071Z,-0.1
2018-02-24T11:14:59.586Z,0
2018-02-24T11:16:57.470Z,0
2018-02-24T11:17:56.483Z,0
2018-02-24T11:18:55.816Z,0
2018-02-24T11:19:54.639Z,0
2018-02-24T11:20:53.870Z,-0.1
2018-02-24T11:21:52.591Z,-0.1
2018-02-24T11:22:51.593Z,-0.1
2018-02-24T11:25:48.180Z,-0.1
2018-02-24T11:26:47.317Z,-0.2
2018-02-24T11:27:46.033Z,-0.1
2018-02-24T11:28:45.357Z,-0.1
2018-02-24T11:30:42.959Z,-0.1
2018-02-24T11:31:42.076Z,-0.1
2018-02-24T11:35:37.946Z,0.1
2018-02-24T11:37:35.430Z,0.2
2018-02-24T11:40:32.188Z,0.2
2018-02-24T11:41:02.736Z,0.2
2018-02-24T11:43:29.729Z,0.1
2018-02-24T11:44:28.232Z,0.1
2018-02-24T11:45:27.350Z,0.1
2018-02-24T11:46:26.353Z,0.1
2018-02-24T11:47:24.958Z,0.1
2018-02-24T11:50:21.839Z,0.1
2018-02-24T11:52:20.046Z,0.2
2018-02-24T11:53:18.326Z,0.2
2018-02-24T11:54:17.950Z,0.2
2018-02-24T11:55:16.776Z,0.2
2018-02-24T11:56:15.497Z,0.1
2018-02-24T11:57:14.712Z,0.1
2018-02-24T11:58:13.441Z,0.2
2018-02-24T11:59:12.606Z,0.2
2018-02-24T11:59:43.145Z,0.2
2018-02-24T12:01:10.440Z,0.1
2018-02-24T12:02:09.767Z,0.2
2018-02-24T12:03:08.595Z,0.2
2018-02-24T12:04:07.309Z,0.2
2018-02-24T12:06:05.410Z,0.2
2018-02-24T12:07:04.020Z,0.2
2018-02-24T12:09:01.803Z,0.2
2018-02-24T12:10:00.939Z,0.2
2018-02-24T12:11:58.719Z,0.2
2018-02-24T12:12:57.942Z,0.3
2018-02-24T12:13:56.670Z,0.4
2018-02-24T12:15:54.880Z,0.3
2018-02-24T12:16:53.820Z,0.3
2018-02-24T12:17:53.064Z,0.3
2018-02-24T12:18:51.896Z,0.3
2018-02-24T12:19:50.743Z,0.2
2018-02-24T12:20:49.135Z,0.2
2018-02-24T12:22:47.237Z,0.2
2018-02-24T12:23:46.668Z,0.2
2018-02-24T12:24:45.496Z,0.2
2018-02-24T12:25:44.328Z,0.2
2018-02-24T12:26:43.761Z,0.2
2018-02-24T12:27:42.254Z,0.2
2018-02-24T12:28:41.476Z,0.2
2018-02-24T12:29:40.086Z,0.3
2018-02-24T12:30:39.305Z,0.3
2018-02-24T12:32:37.054Z,0.4
2018-02-24T12:33:07.587Z,0.4
2018-02-24T12:33:38.130Z,0.4
2018-02-24T12:35:33.519Z,0.5
2018-02-24T12:36:32.629Z,0.5
2018-02-24T12:37:31.748Z,0.6
2018-02-24T12:38:30.867Z,0.7
2018-02-24T12:39:29.586Z,0.8
2018-02-24T12:40:28.700Z,0.8
2018-02-24T12:41:27.412Z,0.8
2018-02-24T12:43:25.508Z,0.5
2018-02-24T12:45:23.396Z,0.4
2018-02-24T12:46:22.505Z,0.4
2018-02-24T12:47:21.443Z,0.3
2018-02-24T12:48:20.120Z,0.3
2018-02-24T12:49:19.018Z,0.3
2018-02-24T12:51:17.017Z,0.2
2018-02-24T12:52:16.468Z,0.2
2018-02-24T12:53:15.395Z,0.3
2018-02-24T12:54:14.234Z,0.3
2018-02-24T12:55:12.910Z,0.4
2018-02-24T12:56:12.148Z,0.4
2018-02-24T12:57:10.865Z,0.6
2018-02-24T12:58:10.304Z,0.6
2018-02-24T12:59:08.934Z,0.6
2018-02-24T13:01:07.163Z,0.6
2018-02-24T13:02:05.990Z,0.6
2018-02-24T13:03:04.383Z,0.6
2018-02-24T13:05:02.708Z,0.6
2018-02-24T13:06:01.319Z,0.7
2018-02-24T13:07:59.820Z,0.8
2018-02-24T13:08:58.645Z,0.8
2018-02-24T13:10:56.238Z,1
2018-02-24T13:11:55.462Z,1.1
2018-02-24T13:12:54.354Z,1
2018-02-24T13:13:53.680Z,1
2018-02-24T13:15:51.387Z,1
2018-02-24T13:16:50.219Z,1
2018-02-24T13:17:49.448Z,0.9
2018-02-24T13:18:48.175Z,0.9
2018-02-24T13:19:47.021Z,0.8
2018-02-24T13:20:46.355Z,0.8
2018-02-24T13:22:43.897Z,0.8
2018-02-24T13:23:42.904Z,0.8
2018-02-24T13:24:42.124Z,0.6
2018-02-24T13:25:41.070Z,0.6
2018-02-24T13:26:39.795Z,0.4
2018-02-24T13:27:39.133Z,0.3
2018-02-24T13:28:37.954Z,0.4
2018-02-24T13:29:36.679Z,0.5
2018-02-24T13:30:36.109Z,0.5
2018-02-24T13:31:34.936Z,0.6
2018-02-24T13:32:33.765Z,0.6
2018-02-24T13:33:32.587Z,0.6
2018-02-24T13:34:31.705Z,0.7
2018-02-24T13:37:28.895Z,0.7
2018-02-24T13:38:27.605Z,0.8
2018-02-24T13:39:26.102Z,0.7
2018-02-24T13:40:24.887Z,0.8
2018-02-24T13:41:24.239Z,0.8
2018-02-24T13:42:23.326Z,0.7
2018-02-24T13:43:22.436Z,0.7
2018-02-24T13:44:21.052Z,0.7
2018-02-24T13:45:20.385Z,0.8
2018-02-24T13:47:17.877Z,0.9
2018-02-24T13:50:14.756Z,0.8
2018-02-24T13:51:13.865Z,0.9
2018-02-24T13:52:13.203Z,1
2018-02-24T13:56:09.169Z,1.4
2018-02-24T13:58:06.808Z,1.4
2018-02-24T13:59:05.913Z,1.6
2018-02-24T14:00:04.634Z,1.6
2018-02-24T14:01:03.967Z,1.7
2018-02-24T14:03:02.018Z,1.9
2018-02-24T14:04:00.807Z,2
2018-02-24T14:04:59.641Z,2
2018-02-24T14:05:58.252Z,1.9
2018-02-24T14:06:57.582Z,2
2018-02-24T14:07:56.803Z,2
2018-02-24T14:08:55.410Z,1.9
2018-02-24T14:09:54.420Z,2
2018-02-24T14:11:52.412Z,2.1
2018-02-24T14:12:51.523Z,2
2018-02-24T14:13:50.751Z,2
2018-02-24T14:14:49.680Z,2
2018-02-24T14:15:48.390Z,2.1
2018-02-24T14:16:47.508Z,2.1
2018-02-24T14:17:46.826Z,2.2
2018-02-24T14:18:45.740Z,2.3
2018-02-24T14:19:44.358Z,2.3
2018-02-24T14:20:43.182Z,2.1
2018-02-24T14:22:41.087Z,2
2018-02-24T14:24:39.297Z,2.2
2018-02-24T14:27:36.173Z,1.8
2018-02-24T14:28:35.291Z,1.7
2018-02-24T14:29:34.159Z,1.7
2018-02-24T14:30:33.500Z,1.6
2018-02-24T14:31:32.107Z,1.7
2018-02-24T14:32:31.224Z,1.7
2018-02-24T14:33:29.721Z,1.7
2018-02-24T14:34:29.256Z,1.7
2018-02-24T14:35:27.974Z,1.8
2018-02-24T14:36:27.200Z,1.7
2018-02-24T14:37:26.027Z,1.6
2018-02-24T14:38:25.513Z,1.5
2018-02-24T14:39:24.159Z,1.6
2018-02-24T14:40:23.343Z,1.6
2018-02-24T14:42:20.839Z,1.2
2018-02-24T14:43:20.064Z,1
2018-02-24T14:44:19.396Z,0.8
2018-02-24T14:45:17.902Z,0.5
2018-02-24T14:46:17.018Z,0.7
2018-02-24T14:47:16.019Z,0.9
2018-02-24T14:48:14.630Z,1.2
2018-02-24T14:49:14.400Z,1.4
2018-02-24T14:51:12.203Z,1.6
2018-02-24T14:52:10.922Z,1.7
2018-02-24T14:53:09.932Z,1.7
2018-02-24T14:54:08.539Z,1.7
2018-02-24T14:56:06.638Z,1.7
2018-02-24T14:57:05.757Z,1.7
2018-02-24T14:58:04.760Z,1.7
2018-02-24T14:59:03.871Z,2
2018-02-24T15:02:59.626Z,2.5
2018-02-24T15:03:58.844Z,2.9
2018-02-24T15:04:57.958Z,3.4
2018-02-24T15:05:56.865Z,3.5
2018-02-24T15:06:55.692Z,3.8
2018-02-24T15:07:54.912Z,3.8
2018-02-24T15:08:53.747Z,3.8
2018-02-24T15:10:51.743Z,4.1
2018-02-24T15:11:50.858Z,4.4
2018-02-24T15:12:49.687Z,4.5
2018-02-24T15:13:48.809Z,4.4
2018-02-24T15:14:47.528Z,3.8
2018-02-24T15:15:46.638Z,3.6
2018-02-24T15:16:45.348Z,3.9
2018-02-24T15:17:44.348Z,4.4
2018-02-24T15:18:43.463Z,4.7
2018-02-24T15:20:41.668Z,4.7
2018-02-24T15:23:38.653Z,4.5
2018-02-24T15:27:34.420Z,4.2
2018-02-24T15:28:33.639Z,4.2
2018-02-24T15:30:31.494Z,4
2018-02-24T15:32:29.102Z,3.7
2018-02-24T15:33:28.220Z,3.7
2018-02-24T15:34:27.438Z,3.6
2018-02-24T15:35:26.157Z,3.6
2018-02-24T15:37:24.369Z,3.1
2018-02-24T15:38:22.985Z,2.4
2018-02-24T15:39:22.202Z,1.7
2018-02-24T15:40:21.534Z,1.5
2018-02-24T15:41:20.159Z,1.1
2018-02-24T15:42:19.385Z,0.9
2018-02-24T15:43:18.226Z,0.8
2018-02-24T15:44:16.950Z,0.6
2018-02-24T15:44:47.637Z,0.6
2018-02-24T15:45:18.161Z,0.4
2018-02-24T15:46:14.877Z,0.3
2018-02-24T15:47:14.210Z,0.2
2018-02-24T15:51:09.977Z,-0.3
2018-02-24T15:52:09.303Z,-0.4
2018-02-24T15:53:08.132Z,-0.4
2018-02-24T15:54:06.642Z,-0.4
2018-02-24T15:55:05.890Z,-0.5
2018-02-24T15:57:03.883Z,-0.6
2018-02-24T15:59:01.994Z,-0.8
2018-02-24T16:00:00.827Z,-0.8
2018-02-24T16:00:59.838Z,-0.8
2018-02-24T16:01:58.661Z,-0.9
2018-02-24T16:02:57.274Z,-0.9
2018-02-24T16:04:55.551Z,-1
2018-02-24T16:06:53.546Z,-1
2018-02-24T16:07:52.769Z,-1
2018-02-24T16:08:51.598Z,-1
2018-02-24T16:09:50.308Z,-1
2018-02-24T16:11:48.416Z,-1.1
2018-02-24T16:12:47.027Z,-1.1
2018-02-24T16:13:46.152Z,-1.1
2018-02-24T16:14:45.567Z,-1.2
2018-02-24T16:15:44.663Z,-1.2
2018-02-24T16:16:43.021Z,-1.2
2018-02-24T16:17:42.240Z,-1.2
2018-02-24T16:19:40.048Z,-1.2
2018-02-24T16:21:37.712Z,-1.3
2018-02-24T16:22:36.938Z,-1.3
2018-02-24T16:23:35.655Z,-1.3
2018-02-24T16:25:33.879Z,-1.3
2018-02-24T16:26:04.283Z,-1.3
2018-02-24T16:26:34.205Z,-1.4
2018-02-24T16:27:04.631Z,-1.4
2018-02-24T16:27:35.100Z,-1.4
2018-02-24T16:29:29.676Z,-1.4
2018-02-24T16:30:28.283Z,-1.4
2018-02-24T16:33:25.271Z,-1.5